Time;durP1;ratioP1;P1;durP2;ratioP2;P2;SDS_P1;SDS_P2;PMS_P1;PMS_P2;Temp;Humidity;BMP_temperature;BMP_pressure;BME280_temperature;BME280_humidity;BME280_pressure;Samples;Min_cycle;Max_cycle;Signal;HPM_P1;HPM_P2
2021/12/27 00:00:31;;;;;;;27.30;14.87;;;5.30;99.90;;;;;;5034526;28;20083;-68
2021/12/27 00:03:02;;;;;;;27.50;14.60;;;5.50;99.90;;;;;;5034114;28;20022;-67
2021/12/27 00:05:29;;;;;;;23.52;13.70;;;5.60;99.90;;;;;;5032201;28;20052;-68
2021/12/27 00:07:55;;;;;;;24.45;14.07;;;5.60;99.90;;;;;;5032403;28;20090;-68
2021/12/27 00:10:23;;;;;;;22.57;13.50;;;5.70;99.90;;;;;;5033884;28;20100;-67
2021/12/27 00:12:50;;;;;;;23.48;14.05;;;5.50;99.90;;;;;;5033720;28;20267;-68
2021/12/27 00:15:16;;;;;;;21.88;13.57;;;5.50;99.90;;;;;;5035256;28;20069;-68
2021/12/27 00:17:43;;;;;;;26.80;14.05;;;5.40;99.90;;;;;;5033544;28;20037;-68
2021/12/27 00:20:11;;;;;;;23.00;13.95;;;5.30;99.90;;;;;;5032612;28;20070;-68
2021/12/27 00:22:38;;;;;;;24.95;14.15;;;5.30;99.90;;;;;;5033545;28;20022;-68
2021/12/27 00:25:08;;;;;;;24.60;13.73;;;5.30;99.90;;;;;;5033528;28;20351;-68
2021/12/27 00:27:34;;;;;;;25.58;14.50;;;5.30;99.90;;;;;;5037228;28;20147;-68
2021/12/27 00:29:59;;;;;;;28.90;14.75;;;5.30;99.90;;;;;;5033277;28;20465;-67
2021/12/27 00:32:25;;;;;;;25.40;14.67;;;5.30;99.90;;;;;;5033589;28;20025;-67
2021/12/27 00:34:51;;;;;;;27.40;14.47;;;5.30;99.90;;;;;;5033635;28;20048;-67
2021/12/27 00:37:17;;;;;;;30.88;15.75;;;5.60;99.90;;;;;;5033458;28;20048;-66
2021/12/27 00:39:43;;;;;;;24.60;13.55;;;5.60;99.90;;;;;;5033512;28;20022;-67
2021/12/27 00:42:08;;;;;;;29.77;14.13;;;5.70;99.90;;;;;;5034050;28;20033;-66
2021/12/27 00:44:34;;;;;;;28.88;14.52;;;5.60;99.90;;;;;;5031894;28;20029;-67
2021/12/27 00:47:00;;;;;;;30.13;15.30;;;5.60;99.90;;;;;;5033345;28;20026;-67
2021/12/27 00:49:27;;;;;;;27.48;14.15;;;5.50;99.90;;;;;;5033619;28;20017;-67
2021/12/27 00:51:52;;;;;;;29.67;15.27;;;5.50;99.90;;;;;;5033079;28;20033;-66
2021/12/27 00:54:19;;;;;;;27.88;15.35;;;5.60;99.90;;;;;;5033379;28;20429;-66
2021/12/27 00:56:45;;;;;;;29.25;17.02;;;5.60;99.90;;;;;;5033141;28;20402;-67
2021/12/27 00:59:10;;;;;;;30.73;15.70;;;5.60;99.90;;;;;;5033109;28;20048;-67
2021/12/27 01:01:36;;;;;;;30.67;15.35;;;5.60;99.90;;;;;;5033096;28;20486;-67
2021/12/27 01:04:03;;;;;;;24.73;14.43;;;5.60;99.90;;;;;;5033002;28;20116;-66
2021/12/27 01:06:29;;;;;;;30.88;15.07;;;5.60;99.90;;;;;;5031569;28;20024;-68
2021/12/27 01:08:55;;;;;;;28.33;15.43;;;5.60;99.90;;;;;;5031884;28;20025;-67
2021/12/27 01:11:26;;;;;;;29.90;15.00;;;5.60;99.90;;;;;;5032803;28;20260;-67
2021/12/27 01:14:11;;;;;;;34.35;16.27;;;5.50;99.90;;;;;;5033146;28;20532;-67
2021/12/27 01:16:38;;;;;;;35.08;17.27;;;5.60;99.90;;;;;;5032457;28;20078;-68
2021/12/27 01:19:05;;;;;;;32.40;15.40;;;5.70;99.90;;;;;;5032528;28;20478;-67
2021/12/27 01:21:32;;;;;;;29.30;15.05;;;5.80;99.90;;;;;;5033137;28;20025;-67
2021/12/27 01:23:57;;;;;;;;;;;6.00;99.90;;;;;;5033533;28;20051;-68
2021/12/27 01:26:26;;;;;;;31.80;15.35;;;5.90;99.90;;;;;;5033527;28;20003;-67
2021/12/27 01:29:00;;;;;;;29.63;14.85;;;5.80;99.90;;;;;;5032701;28;20541;-67
2021/12/27 01:31:26;;;;;;;29.65;15.82;;;5.80;99.90;;;;;;5032475;28;20124;-68
2021/12/27 01:33:52;;;;;;;34.40;16.23;;;5.60;99.90;;;;;;5032628;28;20053;-67
2021/12/27 01:36:18;;;;;;;32.30;15.57;;;5.60;99.90;;;;;;5031286;28;20083;-67
2021/12/27 01:38:46;;;;;;;37.05;16.83;;;5.70;99.90;;;;;;5032458;28;20033;-67
2021/12/27 01:41:14;;;;;;;30.58;15.75;;;5.70;99.90;;;;;;5032669;28;20099;-67
2021/12/27 01:43:41;;;;;;;37.95;15.93;;;5.60;99.90;;;;;;5032479;28;20026;-67
2021/12/27 01:46:10;;;;;;;35.38;16.10;;;5.60;99.90;;;;;;5032611;28;20048;-67
2021/12/27 01:48:39;;;;;;;30.23;15.18;;;5.70;99.90;;;;;;5033482;28;20022;-67
2021/12/27 01:51:10;;;;;;;38.25;16.33;;;5.60;99.90;;;;;;5033119;28;20029;-67
2021/12/27 01:53:38;;;;;;;38.38;17.15;;;5.60;99.90;;;;;;5033582;28;20025;-67
2021/12/27 01:56:06;;;;;;;38.63;17.20;;;5.60;99.90;;;;;;5033421;28;20033;-67
2021/12/27 01:58:32;;;;;;;43.83;18.23;;;5.60;99.90;;;;;;5033467;28;20030;-67
2021/12/27 02:01:00;;;;;;;36.80;16.67;;;5.60;99.90;;;;;;5032571;28;20135;-67
2021/12/27 02:03:28;;;;;;;39.28;17.45;;;5.60;99.90;;;;;;5033243;28;20029;-67
2021/12/27 02:05:54;;;;;;;36.70;18.15;;;5.60;99.90;;;;;;5033235;28;20037;-67
2021/12/27 02:08:21;;;;;;;42.28;18.40;;;5.80;99.90;;;;;;5032311;28;20093;-67
2021/12/27 02:10:49;;;;;;;34.60;16.33;;;5.80;99.90;;;;;;5032754;28;20026;-67
2021/12/27 02:13:15;;;;;;;37.33;16.38;;;5.70;99.90;;;;;;5032408;28;20104;-67
2021/12/27 02:15:41;;;;;;;43.03;17.42;;;5.60;99.90;;;;;;5032554;28;20055;-67
2021/12/27 02:18:09;;;;;;;39.60;17.70;;;5.50;99.90;;;;;;5032651;28;20040;-67
2021/12/27 02:20:35;;;;;;;38.28;17.15;;;5.50;99.90;;;;;;5032215;28;20044;-67
2021/12/27 02:23:07;;;;;;;42.63;18.35;;;5.40;99.90;;;;;;5032500;28;20026;-66
2021/12/27 02:25:34;;;;;;;41.28;17.42;;;5.40;99.90;;;;;;5031794;28;20087;-66
2021/12/27 02:28:04;;;;;;;42.60;18.98;;;5.50;99.90;;;;;;5032310;28;20112;-66
2021/12/27 02:30:30;;;;;;;37.95;17.20;;;5.50;99.90;;;;;;5035307;28;20092;-67
2021/12/27 02:33:04;;;;;;;43.63;19.13;;;5.50;99.90;;;;;;5035928;28;20053;-66
2021/12/27 02:35:34;;;;;;;43.97;18.35;;;5.40;99.90;;;;;;5036036;28;20037;-66
2021/12/27 02:38:02;;;;;;;42.53;18.00;;;5.50;99.90;;;;;;5034244;28;20033;-66
2021/12/27 02:40:30;;;;;;;41.25;19.20;;;5.80;99.90;;;;;;5035724;28;20421;-67
2021/12/27 02:43:14;;;;;;;40.42;18.20;;;5.80;99.90;;;;;;5034333;28;20116;-67
2021/12/27 02:45:49;;;;;;;44.28;18.45;;;5.80;99.90;;;;;;5035402;28;20029;-67
2021/12/27 02:48:18;;;;;;;37.70;18.25;;;5.80;99.90;;;;;;5034300;28;20025;-66
2021/12/27 02:50:46;;;;;;;40.75;18.92;;;5.90;99.90;;;;;;5035359;28;20462;-67
2021/12/27 02:53:12;;;;;;;37.00;18.05;;;6.10;99.90;;;;;;5033762;28;20029;-67
2021/12/27 02:55:39;;;;;;;37.88;18.85;;;5.90;99.90;;;;;;5035092;28;20022;-67
2021/12/27 02:58:06;;;;;;;34.70;17.35;;;5.90;99.90;;;;;;5034160;28;20446;-66
2021/12/27 03:00:37;;;;;;;38.22;17.33;;;5.90;99.90;;;;;;5035350;28;20101;-66
2021/12/27 03:03:03;;;;;;;33.28;16.45;;;5.90;99.90;;;;;;5035252;28;20064;-67
2021/12/27 03:05:29;;;;;;;32.03;15.63;;;6.00;99.90;;;;;;5035681;28;20076;-67
2021/12/27 03:07:57;;;;;;;33.65;16.00;;;5.90;99.90;;;;;;5033842;28;20025;-67
2021/12/27 03:10:27;;;;;;;32.97;16.52;;;5.80;99.90;;;;;;5035198;28;20018;-67
2021/12/27 03:12:54;;;;;;;30.08;15.55;;;5.80;99.90;;;;;;5034113;28;20497;-67
2021/12/27 03:15:22;;;;;;;30.90;15.52;;;5.80;99.90;;;;;;5035816;28;20096;-67
2021/12/27 03:17:49;;;;;;;32.65;16.83;;;5.80;99.90;;;;;;5035750;28;20085;-66
2021/12/27 03:20:18;;;;;;;26.75;14.57;;;5.80;99.90;;;;;;5035013;28;20032;-66
2021/12/27 03:22:44;;;;;;;30.38;16.20;;;5.90;99.90;;;;;;5033364;28;20493;-66
2021/12/27 03:25:13;;;;;;;29.85;14.88;;;5.90;99.90;;;;;;5034638;28;20109;-66
2021/12/27 03:27:39;;;;;;;27.58;14.40;;;5.90;99.90;;;;;;5034768;28;20382;-65
2021/12/27 03:30:08;;;;;;;26.33;14.15;;;6.10;99.90;;;;;;5034842;28;20036;-66
2021/12/27 03:32:36;;;;;;;28.38;14.55;;;6.30;99.90;;;;;;5034412;28;20028;-66
2021/12/27 03:35:09;;;;;;;25.77;15.20;;;6.20;99.90;;;;;;5033044;28;20120;-66
2021/12/27 03:37:36;;;;;;;23.42;13.98;;;6.10;99.90;;;;;;5035023;28;20128;-66
2021/12/27 03:40:03;;;;;;;26.52;14.90;;;6.10;99.90;;;;;;5034466;28;20145;-66
2021/12/27 03:42:29;;;;;;;27.35;14.45;;;6.00;99.90;;;;;;5034964;28;20021;-66
2021/12/27 03:44:55;;;;;;;25.70;13.33;;;6.00;99.90;;;;;;5033303;28;20168;-65
2021/12/27 03:47:20;;;;;;;23.73;13.23;;;6.00;99.90;;;;;;5034519;28;20028;-66
2021/12/27 03:49:46;;;;;;;25.27;14.00;;;6.00;99.90;;;;;;5034735;28;20036;-66
2021/12/27 03:52:11;;;;;;;22.87;12.90;;;6.00;99.90;;;;;;5034561;28;20025;-66
2021/12/27 03:54:37;;;;;;;22.93;12.73;;;6.00;99.90;;;;;;5034294;28;20026;-66
2021/12/27 03:57:03;;;;;;;23.27;12.33;;;6.00;99.90;;;;;;5034272;28;20025;-67
2021/12/27 04:00:43;;;;;;;23.70;12.97;;;6.10;99.90;;;;;;5034603;28;20478;-67
2021/12/27 04:02:23;;;;;;;21.98;13.40;;;6.30;99.90;;;;;;5029051;28;20033;-67
2021/12/27 04:04:49;;;;;;;20.67;12.70;;;6.20;99.90;;;;;;5033940;28;20068;-67
2021/12/27 04:07:14;;;;;;;25.57;14.20;;;6.20;99.90;;;;;;5034209;28;20025;-67
2021/12/27 04:09:40;;;;;;;26.13;14.33;;;6.20;99.90;;;;;;5032935;28;20041;-67
2021/12/27 04:12:06;;;;;;;25.97;14.63;;;6.20;99.90;;;;;;5034109;28;20024;-66
2021/12/27 04:14:32;;;;;;;22.10;12.75;;;6.10;99.90;;;;;;5032390;28;20025;-66
2021/12/27 04:16:58;;;;;;;47.75;15.57;;;6.10;99.90;;;;;;5034141;28;20026;-66
2021/12/27 04:19:23;;;;;;;27.87;14.63;;;6.10;99.90;;;;;;5033783;28;20040;-66
2021/12/27 04:21:49;;;;;;;25.20;14.37;;;6.10;99.90;;;;;;5033665;28;20104;-66
2021/12/27 04:24:14;;;;;;;23.60;13.97;;;6.20;99.90;;;;;;5033756;28;20490;-66
2021/12/27 04:26:40;;;;;;;27.43;14.77;;;6.20;99.90;;;;;;5033544;28;20030;-67
2021/12/27 04:29:06;;;;;;;26.80;15.52;;;6.10;99.90;;;;;;5033482;28;20025;-67
2021/12/27 04:31:32;;;;;;;27.23;16.30;;;6.10;99.90;;;;;;5033692;28;20061;-67
2021/12/27 04:33:57;;;;;;;24.83;14.50;;;6.10;99.90;;;;;;5031920;28;20417;-67
2021/12/27 04:36:23;;;;;;;24.47;13.70;;;6.10;99.90;;;;;;5031785;28;20064;-67
2021/12/27 04:38:49;;;;;;;22.88;13.10;;;6.20;99.90;;;;;;5033193;28;20455;-67
2021/12/27 04:41:19;;;;;;;22.00;13.70;;;6.20;99.90;;;;;;5033118;28;20113;-67
2021/12/27 04:43:45;;;;;;;21.70;13.15;;;6.20;99.90;;;;;;5033222;28;20061;-67
2021/12/27 04:46:11;;;;;;;23.00;13.30;;;6.20;99.90;;;;;;5032912;28;20024;-67
2021/12/27 04:48:36;;;;;;;22.23;13.43;;;6.40;99.90;;;;;;5033435;28;20025;-67
2021/12/27 04:51:02;;;;;;;20.47;12.63;;;6.50;99.90;;;;;;5032743;28;20021;-67
2021/12/27 04:53:28;;;;;;;20.90;12.03;;;6.40;99.90;;;;;;5032753;28;20481;-67
2021/12/27 04:55:54;;;;;;;21.90;13.23;;;6.30;99.90;;;;;;5031699;28;20329;-67
2021/12/27 04:58:22;;;;;;;20.45;12.30;;;6.30;99.90;;;;;;5034818;28;20474;-67
2021/12/27 05:00:48;;;;;;;20.00;12.05;;;6.30;99.90;;;;;;5031591;28;20490;-67
2021/12/27 05:03:14;;;;;;;;;;;6.30;99.90;;;;;;5033424;28;20036;-67
2021/12/27 05:05:43;;;;;;;23.35;13.52;;;6.40;99.90;;;;;;5032935;28;19909;-67
2021/12/27 05:08:10;;;;;;;24.75;14.00;;;6.30;99.90;;;;;;5031656;28;20021;-67
2021/12/27 05:10:37;;;;;;;20.95;13.15;;;6.30;99.90;;;;;;5033242;28;20458;-67
2021/12/27 05:13:03;;;;;;;20.88;12.80;;;6.30;99.90;;;;;;5032653;28;20029;-67
2021/12/27 05:15:29;;;;;;;21.23;13.05;;;6.30;99.90;;;;;;5032829;28;20025;-66
2021/12/27 05:17:55;;;;;;;25.10;13.57;;;6.30;99.90;;;;;;5031348;28;20032;-67
2021/12/27 05:20:20;;;;;;;19.48;13.13;;;6.20;99.90;;;;;;5033105;28;20029;-67
2021/12/27 05:22:46;;;;;;;22.67;14.07;;;6.20;99.90;;;;;;5032910;28;20035;-67
2021/12/27 05:25:15;;;;;;;24.15;14.55;;;6.20;99.90;;;;;;5032430;28;20040;-67
2021/12/27 05:27:41;;;;;;;25.27;14.27;;;6.30;99.90;;;;;;5032817;28;20438;-67
2021/12/27 05:30:08;;;;;;;23.50;14.38;;;6.30;99.90;;;;;;5032515;28;20017;-67
2021/12/27 05:32:35;;;;;;;20.98;12.68;;;6.20;99.90;;;;;;5031505;28;20021;-67
2021/12/27 05:35:03;;;;;;;21.25;12.93;;;6.30;99.90;;;;;;5034376;28;20028;-67
2021/12/27 05:37:29;;;;;;;21.27;13.07;;;6.20;99.90;;;;;;5032443;28;20120;-66
2021/12/27 05:39:55;;;;;;;23.88;13.60;;;6.20;99.90;;;;;;5032315;28;20131;-67
2021/12/27 05:42:20;;;;;;;26.77;15.00;;;6.20;99.90;;;;;;5031079;28;20490;-67
2021/12/27 05:44:46;;;;;;;23.07;13.43;;;6.30;99.90;;;;;;5032220;28;20029;-67
2021/12/27 05:47:12;;;;;;;23.90;13.97;;;6.30;99.90;;;;;;5032392;28;20021;-67
2021/12/27 05:49:37;;;;;;;20.27;12.43;;;6.30;99.90;;;;;;5032601;28;20256;-66
2021/12/27 05:52:03;;;;;;;23.23;14.00;;;6.30;99.90;;;;;;5031077;28;20033;-66
2021/12/27 05:54:29;;;;;;;21.48;13.35;;;6.30;99.90;;;;;;5032313;28;20029;-67
2021/12/27 05:56:55;;;;;;;20.77;13.57;;;6.30;99.90;;;;;;5032509;28;20366;-66
2021/12/27 05:59:20;;;;;;;25.10;13.67;;;6.30;99.90;;;;;;5032370;28;20029;-66
2021/12/27 06:01:46;;;;;;;25.63;16.10;;;6.30;99.90;;;;;;5033349;28;20087;-66
2021/12/27 06:04:12;;;;;;;26.85;15.55;;;6.30;99.90;;;;;;5033708;28;20132;-66
2021/12/27 06:06:38;;;;;;;23.13;13.70;;;6.30;99.90;;;;;;5036133;28;20203;-66
2021/12/27 06:09:05;;;;;;;23.20;13.47;;;6.30;99.90;;;;;;5034698;28;20260;-67
2021/12/27 06:11:31;;;;;;;21.30;13.63;;;6.30;99.90;;;;;;5035939;28;20040;-67
2021/12/27 06:14:00;;;;;;;22.50;13.80;;;6.30;99.90;;;;;;5036155;28;20467;-66
2021/12/27 06:16:25;;;;;;;21.98;13.50;;;6.30;99.90;;;;;;5035912;28;20260;-66
2021/12/27 06:18:51;;;;;;;27.93;15.10;;;6.30;99.90;;;;;;5035878;28;20179;-66
2021/12/27 06:21:16;;;;;;;25.37;13.70;;;6.30;99.90;;;;;;5036263;28;20021;-66
2021/12/27 06:23:43;;;;;;;24.30;13.97;;;6.30;99.90;;;;;;5035600;28;20036;-68
2021/12/27 06:26:08;;;;;;;20.42;12.43;;;6.30;99.90;;;;;;5036014;28;20091;-65
2021/12/27 06:28:34;;;;;;;21.63;12.07;;;6.30;99.90;;;;;;5034502;28;20128;-66
2021/12/27 06:31:02;;;;;;;20.97;12.90;;;6.20;99.90;;;;;;5035800;28;20264;-66
2021/12/27 06:33:29;;;;;;;21.52;13.23;;;6.20;99.90;;;;;;5035347;28;20127;-66
2021/12/27 06:35:54;;;;;;;;;;;6.10;99.90;;;;;;5036663;28;20025;-66
2021/12/27 06:38:21;;;;;;;22.17;12.95;;;6.10;99.90;;;;;;5035537;28;19959;-66
2021/12/27 06:40:49;;;;;;;;;;;6.10;99.90;;;;;;5035953;28;20017;-66
2021/12/27 06:43:16;;;;;;;19.48;12.45;;;6.10;99.90;;;;;;5034028;28;19912;-66
2021/12/27 06:45:42;;;;;;;19.92;13.07;;;6.00;99.90;;;;;;5036185;28;20365;-67
2021/12/27 06:48:07;;;;;;;23.65;12.52;;;6.10;99.90;;;;;;5035984;28;20523;-66
2021/12/27 06:50:33;;;;;;;20.70;13.20;;;6.10;99.90;;;;;;5035742;28;20030;-66
2021/12/27 06:52:59;;;;;;;23.03;12.93;;;6.10;99.90;;;;;;5035663;28;20022;-66
2021/12/27 06:55:24;;;;;;;19.73;12.03;;;6.10;99.90;;;;;;5035259;28;20041;-66
2021/12/27 06:57:50;;;;;;;24.60;12.13;;;6.10;99.90;;;;;;5034013;28;20299;-66
2021/12/27 07:00:16;;;;;;;19.93;12.07;;;6.10;99.90;;;;;;5033862;28;20029;-66
2021/12/27 07:02:44;;;;;;;19.73;11.80;;;6.10;99.90;;;;;;5034071;28;20030;-67
2021/12/27 07:05:11;;;;;;;18.65;11.60;;;6.10;99.90;;;;;;5035202;28;20475;-67
2021/12/27 07:07:37;;;;;;;21.88;12.20;;;6.10;99.90;;;;;;5035290;28;20021;-67
2021/12/27 07:10:05;;;;;;;20.45;12.55;;;6.10;99.90;;;;;;5035435;28;20040;-67
2021/12/27 07:12:31;;;;;;;24.15;12.57;;;6.00;99.90;;;;;;5035249;28;20029;-66
2021/12/27 07:14:57;;;;;;;21.67;12.00;;;6.00;99.90;;;;;;5034347;28;20033;-66
2021/12/27 07:17:22;;;;;;;23.07;12.10;;;6.00;99.90;;;;;;5033541;28;20044;-66
2021/12/27 07:19:48;;;;;;;20.37;12.43;;;6.10;99.90;;;;;;5034692;28;20029;-67
2021/12/27 07:22:14;;;;;;;18.87;12.17;;;6.10;99.90;;;;;;5033101;28;20061;-66
2021/12/27 07:24:40;;;;;;;19.30;11.85;;;6.10;99.90;;;;;;5034263;28;20033;-67
2021/12/27 07:27:06;;;;;;;20.67;12.52;;;6.10;99.90;;;;;;5033261;28;20033;-68
2021/12/27 07:29:31;;;;;;;26.97;16.07;;;6.10;99.90;;;;;;5034651;28;20192;-66
2021/12/27 07:31:57;;;;;;;16.83;11.03;;;6.10;99.90;;;;;;5034478;28;20026;-67
2021/12/27 07:34:24;;;;;;;16.83;10.70;;;6.10;99.90;;;;;;5039154;28;20260;-67
2021/12/27 07:36:52;;;;;;;16.38;11.25;;;6.10;99.90;;;;;;5034228;28;20520;-66
2021/12/27 07:39:20;;;;;;;17.42;11.10;;;6.00;99.90;;;;;;5039200;28;20430;-66
2021/12/27 07:41:46;;;;;;;16.65;10.18;;;6.00;99.90;;;;;;5034582;28;20025;-66
2021/12/27 07:44:11;;;;;;;18.50;11.23;;;6.00;99.90;;;;;;5034153;28;20052;-66
2021/12/27 07:46:40;;;;;;;17.00;10.67;;;6.00;99.90;;;;;;5034000;28;20033;-66
2021/12/27 07:49:07;;;;;;;14.40;10.40;;;6.00;99.90;;;;;;5034267;28;20438;-66
2021/12/27 07:51:32;;;;;;;;;;;6.10;99.90;;;;;;5035491;28;20029;-66
2021/12/27 07:53:58;;;;;;;16.92;10.05;;;6.10;99.90;;;;;;5033895;28;19927;-68
2021/12/27 07:56:24;;;;;;;18.07;11.40;;;6.10;99.90;;;;;;5033402;28;20025;-68
2021/12/27 07:58:49;;;;;;;17.50;10.00;;;6.20;99.90;;;;;;5034888;28;20121;-67
2021/12/27 08:01:16;;;;;;;16.13;10.27;;;6.20;99.90;;;;;;5034661;28;20029;-67
2021/12/27 08:03:42;;;;;;;;;;;6.20;99.90;;;;;;5034468;28;20025;-67
2021/12/27 08:06:07;;;;;;;15.98;10.25;;;6.20;99.90;;;;;;5033651;28;19955;-66
2021/12/27 08:08:33;;;;;;;15.87;10.87;;;6.20;99.90;;;;;;5033707;28;20017;-66
2021/12/27 08:10:58;;;;;;;16.27;10.27;;;6.20;99.90;;;;;;5033915;28;20379;-67
2021/12/27 08:13:24;;;;;;;18.80;11.40;;;6.20;99.90;;;;;;5034107;28;20037;-68
2021/12/27 08:15:50;;;;;;;17.23;11.03;;;6.20;99.90;;;;;;5033702;28;20101;-67
2021/12/27 08:18:16;;;;;;;15.73;11.20;;;6.20;99.90;;;;;;5034300;28;20021;-67
2021/12/27 08:20:41;;;;;;;15.63;10.50;;;6.20;99.90;;;;;;5033903;28;20339;-66
2021/12/27 08:23:07;;;;;;;14.13;10.00;;;6.30;99.90;;;;;;5033646;28;20025;-68
2021/12/27 08:25:32;;;;;;;13.30;9.50;;;6.40;99.90;;;;;;5033648;28;20068;-66
2021/12/27 08:27:58;;;;;;;17.73;9.90;;;6.40;99.90;;;;;;5033927;28;20022;-67
2021/12/27 08:30:24;;;;;;;15.73;9.50;;;6.40;99.90;;;;;;5034596;28;20026;-67
2021/12/27 08:32:49;;;;;;;16.70;10.10;;;6.50;99.90;;;;;;5034645;28;20506;-66
2021/12/27 08:35:15;;;;;;;13.23;9.23;;;6.60;99.90;;;;;;5033161;28;20032;-68
2021/12/27 08:37:42;;;;;;;15.75;9.50;;;6.70;99.90;;;;;;5033950;28;20029;-68
2021/12/27 08:40:09;;;;;;;13.10;8.65;;;6.80;99.90;;;;;;5033719;28;20030;-67
2021/12/27 08:42:35;;;;;;;;;;;6.70;99.90;;;;;;5034441;28;20025;-67
2021/12/27 08:45:01;;;;;;;14.07;9.02;;;6.70;99.90;;;;;;5033815;28;19916;-67
2021/12/27 08:47:27;;;;;;;14.07;9.63;;;6.70;99.90;;;;;;5033807;28;20474;-68
2021/12/27 08:49:52;;;;;;;12.70;8.80;;;6.80;99.90;;;;;;5033435;28;20267;-67
2021/12/27 08:52:18;;;;;;;11.70;8.13;;;7.00;99.90;;;;;;5033989;28;20021;-67
2021/12/27 08:54:43;;;;;;;11.83;8.30;;;7.30;99.90;;;;;;5033381;28;20737;-67
2021/12/27 08:57:09;;;;;;;12.27;8.50;;;7.30;99.90;;;;;;5033509;28;20025;-67
2021/12/27 08:59:39;;;;;;;11.87;8.63;;;7.20;99.90;;;;;;5035134;28;20032;-68
2021/12/27 09:02:05;;;;;;;11.82;8.20;;;7.20;99.90;;;;;;5033872;28;20120;-67
2021/12/27 09:04:31;;;;;;;12.27;8.27;;;7.30;99.90;;;;;;5033416;28;20047;-68
2021/12/27 09:06:57;;;;;;;15.52;8.48;;;7.30;99.90;;;;;;5032570;28;20378;-68
2021/12/27 09:09:23;;;;;;;11.98;8.48;;;7.40;99.90;;;;;;5033429;28;20451;-69
2021/12/27 09:11:49;;;;;;;12.17;8.57;;;7.50;99.90;;;;;;5032254;28;20030;-68
2021/12/27 09:14:15;;;;;;;12.53;8.43;;;7.60;99.90;;;;;;5033536;28;20030;-69
2021/12/27 09:16:41;;;;;;;12.60;7.78;;;7.70;99.90;;;;;;5033599;28;20291;-69
2021/12/27 09:19:07;;;;;;;11.48;7.05;;;7.70;99.90;;;;;;5033730;28;20537;-70
2021/12/27 09:21:33;;;;;;;14.17;8.37;;;7.70;99.90;;;;;;5033342;28;20037;-68
2021/12/27 09:23:59;;;;;;;11.27;7.72;;;7.80;99.90;;;;;;5032074;28;20434;-69
2021/12/27 09:26:24;;;;;;;10.25;7.43;;;7.70;99.90;;;;;;5033453;28;20096;-69
2021/12/27 09:28:50;;;;;;;14.60;8.43;;;7.70;99.90;;;;;;5033464;28;20029;-69
2021/12/27 09:31:16;;;;;;;14.33;8.13;;;7.70;99.90;;;;;;5033411;28;20466;-68
2021/12/27 09:33:41;;;;;;;12.60;7.93;;;7.60;99.90;;;;;;5033037;28;20068;-67
2021/12/27 09:36:08;;;;;;;16.33;9.60;;;7.60;99.90;;;;;;5032894;28;20021;-68
2021/12/27 09:38:33;;;;;;;14.57;9.45;;;7.60;99.90;;;;;;5032493;28;20434;-69
2021/12/27 09:40:59;;;;;;;14.87;9.50;;;7.60;99.90;;;;;;5031757;28;20021;-67
2021/12/27 09:43:26;;;;;;;11.43;8.50;;;7.70;99.90;;;;;;5032600;28;20068;-67
2021/12/27 09:45:52;;;;;;;11.70;8.45;;;7.80;99.90;;;;;;5032254;28;20025;-68
2021/12/27 09:48:18;;;;;;;11.80;8.60;;;7.90;99.90;;;;;;5032743;28;20099;-68
2021/12/27 09:50:47;;;;;;;12.77;8.33;;;7.90;99.90;;;;;;5032429;28;20032;-68
2021/12/27 09:53:13;;;;;;;11.98;8.40;;;7.90;99.90;;;;;;5032341;28;20264;-68
2021/12/27 09:55:39;;;;;;;12.07;8.23;;;8.00;99.90;;;;;;5031925;28;20057;-67
2021/12/27 09:58:06;;;;;;;11.87;7.83;;;8.00;99.90;;;;;;5032290;28;20053;-67
2021/12/27 10:00:32;;;;;;;;;;;8.10;99.90;;;;;;5032470;28;20485;-67
2021/12/27 10:02:58;;;;;;;10.63;8.00;;;8.10;99.90;;;;;;5031948;28;19906;-68
2021/12/27 10:05:25;;;;;;;;;;;8.20;99.90;;;;;;5032301;28;20026;-66
2021/12/27 10:07:51;;;;;;;10.25;7.07;;;8.50;99.90;;;;;;5033693;28;19928;-66
2021/12/27 10:10:17;;;;;;;8.90;6.77;;;8.60;99.90;;;;;;5031982;28;20207;-67
2021/12/27 10:12:43;;;;;;;;;;;8.90;99.90;;;;;;5032682;28;20026;-67
2021/12/27 10:15:12;;;;;;;10.60;6.30;;;9.10;99.90;;;;;;5030427;28;19912;-67
2021/12/27 10:17:38;;;;;;;8.88;5.35;;;9.30;99.90;;;;;;5031883;28;20112;-68
2021/12/27 10:20:14;;;;;;;13.05;8.07;;;9.40;99.90;;;;;;5030289;28;20536;-68
2021/12/27 10:22:43;;;;;;;8.38;5.35;;;9.50;99.90;;;;;;5031880;28;20034;-68
2021/12/27 10:25:16;;;;;;;9.88;6.07;;;9.70;99.90;;;;;;5031456;28;20034;-68
2021/12/27 10:27:43;;;;;;;9.02;4.95;;;9.80;99.90;;;;;;5031883;28;20438;-68
2021/12/27 10:30:21;;;;;;;6.07;4.75;;;9.90;99.90;;;;;;5031877;28;20025;-67
2021/12/27 10:33:08;;;;;;;7.88;4.80;;;10.00;99.90;;;;;;5031837;28;20099;-68
2021/12/27 10:35:34;;;;;;;;;;;10.30;99.90;;;;;;5032202;28;20033;-67
2021/12/27 10:38:12;;;;;;;8.05;4.82;;;10.30;99.90;;;;;;5030642;28;19905;-68
2021/12/27 10:40:37;;;;;;;7.80;4.50;;;10.30;99.90;;;;;;5032498;28;20036;-66
2021/12/27 10:43:04;;;;;;;5.53;4.23;;;10.40;99.90;;;;;;5031756;28;20105;-67
2021/12/27 10:45:30;;;;;;;5.88;3.95;;;10.40;99.90;;;;;;5031659;28;20025;-66
2021/12/27 10:48:02;;;;;;;6.50;4.43;;;10.60;99.90;;;;;;5033338;28;20077;-66
2021/12/27 10:50:31;;;;;;;5.35;3.42;;;10.80;99.90;;;;;;5033724;28;20097;-66
2021/12/27 10:53:04;;;;;;;5.35;3.20;;;10.90;99.90;;;;;;5035046;28;20360;-68
2021/12/27 10:55:39;;;;;;;3.75;2.50;;;11.00;99.90;;;;;;5035341;28;20327;-69
2021/12/27 10:58:28;;;;;;;3.90;2.42;;;11.10;99.90;;;;;;5039735;28;20030;-67
2021/12/27 11:01:04;;;;;;;4.90;3.05;;;11.00;99.90;;;;;;5034884;28;20076;-68
2021/12/27 11:03:33;;;;;;;4.60;3.15;;;11.00;99.90;;;;;;5039595;28;20022;-68
2021/12/27 11:06:02;;;;;;;5.72;2.58;;;11.10;99.90;;;;;;5034724;28;20488;-67
2021/12/27 11:08:29;;;;;;;6.03;3.03;;;11.20;99.90;;;;;;5036005;28;20045;-67
2021/12/27 11:10:55;;;;;;;3.70;2.53;;;11.20;99.90;;;;;;5035919;28;20060;-67
2021/12/27 11:13:21;;;;;;;4.35;2.45;;;11.10;99.90;;;;;;5034881;28;20145;-67
2021/12/27 11:15:47;;;;;;;4.13;2.45;;;11.00;99.90;;;;;;5034724;28;20033;-67
2021/12/27 11:18:15;;;;;;;4.30;2.70;;;11.00;99.90;;;;;;5035104;28;20425;-67
2021/12/27 11:20:46;;;;;;;5.88;2.75;;;11.00;99.90;;;;;;5033426;28;20041;-67
2021/12/27 11:23:14;;;;;;;4.93;2.55;;;11.10;99.90;;;;;;5035134;28;20027;-65
2021/12/27 11:25:42;;;;;;;4.22;2.88;;;11.10;99.90;;;;;;5034357;28;20025;-66
2021/12/27 11:28:31;;;;;;;2.83;2.08;;;11.10;99.90;;;;;;5034827;28;20017;-67
2021/12/27 11:31:00;;;;;;;3.17;2.38;;;11.10;99.90;;;;;;5034749;28;20030;-67
2021/12/27 11:33:26;;;;;;;3.50;2.30;;;11.10;99.90;;;;;;5035007;28;20017;-66
2021/12/27 11:35:51;;;;;;;;;;;11.10;99.90;;;;;;5035670;28;20036;-66
2021/12/27 11:38:37;;;;;;;5.63;3.00;;;11.00;99.90;;;;;;5035458;28;19932;-67
2021/12/27 11:41:26;;;;;;;5.57;3.00;;;11.00;99.90;;;;;;5034516;28;20031;-65
2021/12/27 11:43:53;;;;;;;6.68;3.00;;;10.90;99.90;;;;;;5033921;28;20037;-66
2021/12/27 11:46:25;;;;;;;4.32;2.97;;;10.70;99.90;;;;;;5033881;28;20505;-67
2021/12/27 11:48:53;;;;;;;4.75;2.72;;;10.60;99.90;;;;;;5034242;28;20095;-66
2021/12/27 11:51:31;;;;;;;6.20;2.92;;;10.60;99.90;;;;;;5034855;28;20424;-66
2021/12/27 11:53:57;;;;;;;3.78;2.67;;;10.50;99.90;;;;;;5033995;28;20017;-66
2021/12/27 11:56:38;;;;;;;12.75;3.58;;;10.50;99.90;;;;;;5034280;28;20029;-67
2021/12/27 11:59:22;;;;;;;5.03;3.30;;;10.60;99.90;;;;;;5033970;28;20021;-66
2021/12/27 12:01:51;;;;;;;5.07;3.17;;;10.70;99.90;;;;;;5032027;28;20052;-66
2021/12/27 12:04:56;;;;;;;6.35;3.20;;;10.70;99.90;;;;;;5033676;28;20029;-66
2021/12/27 12:07:34;;;;;;;7.07;3.53;;;10.70;99.90;;;;;;4973018;28;20097;-66
2021/12/27 12:10:02;;;;;;;5.00;3.15;;;10.70;99.90;;;;;;5027174;28;20068;-66
2021/12/27 12:12:28;;;;;;;6.55;3.42;;;10.80;99.90;;;;;;5034280;28;20454;-66
2021/12/27 12:14:59;;;;;;;5.47;3.08;;;10.80;99.90;;;;;;5033845;28;20026;-66
2021/12/27 12:17:48;;;;;;;4.50;2.80;;;10.80;99.90;;;;;;5033730;28;20488;-68
2021/12/27 12:20:36;;;;;;;7.57;3.25;;;10.90;99.90;;;;;;5033609;28;20032;-66
2021/12/27 12:23:08;;;;;;;7.70;3.20;;;10.90;99.90;;;;;;5033401;28;20036;-66
2021/12/27 12:25:35;;;;;;;5.40;2.97;;;10.90;99.90;;;;;;5031737;28;20130;-66
2021/12/27 12:28:15;;;;;;;5.28;3.10;;;10.90;99.90;;;;;;5057781;23;20046;-64
2021/12/27 12:30:50;;;;;;;5.68;2.70;;;10.90;99.90;;;;;;5033509;28;20026;-62
2021/12/27 12:33:18;;;;;;;5.53;3.05;;;10.90;99.90;;;;;;5034466;28;20034;-63
2021/12/27 12:35:56;;;;;;;6.15;4.03;;;10.80;99.90;;;;;;5049706;28;20025;-63
2021/12/27 12:38:25;;;;;;;5.05;3.33;;;10.80;99.90;;;;;;5029555;28;20505;-65
2021/12/27 12:41:09;;;;;;;5.47;4.05;;;10.70;99.90;;;;;;5016578;28;20055;-64
2021/12/27 12:43:39;;;;;;;6.25;4.82;;;10.60;99.90;;;;;;5016659;28;20439;-64
2021/12/27 12:46:18;;;;;;;8.20;5.28;;;10.60;99.90;;;;;;5016182;28;20112;-63